Beverly Manor, Illinois
Current Conditions -  °F | °C
As of 3:54 PM on Friday 31 Oct 2014 (Local Time) from KPIA Reporting Station
Few Clouds Few Clouds  
Wind Chill: 38°   Ceiling: Unl
Heat Index: 45°   Visibility: 10mi
Dew Point: 19°   Wind: 16mph
Humidity: 36%   Direction: 10°N
Pressure: 30.29"   Gusts: 25mph
Location:  40.703°N, 89.4173°W
Report Text: KPIA 312054Z 01014G22KT 10SM FEW055 07/M07 A3029 RMK AO2 PK WND 35028/1958 SLP261 T00721072 53009
Loading
Personal Weather Stations






























Interactive Weather Map
Tropical Storm Tracking
New forecast layout! Learn more

10-Day Weather Forecast

Advertisements
Track Severe Weather on mobile